sensor_id;sensor_type;location;lat;lon;timestamp;P1;durP1;ratioP1;P2;durP2;ratioP2
47365;SDS011;33105;47.964;7.982;2022-08-05T00:01:20;3.38;;;1.60;;
47365;SDS011;33105;47.964;7.982;2022-08-05T00:04:22;2.33;;;1.40;;
47365;SDS011;33105;47.964;7.982;2022-08-05T00:07:23;3.97;;;1.52;;
47365;SDS011;33105;47.964;7.982;2022-08-05T00:10:30;1.40;;;1.30;;
47365;SDS011;33105;47.964;7.982;2022-08-05T00:13:32;2.13;;;1.50;;
47365;SDS011;33105;47.964;7.982;2022-08-05T00:16:34;4.63;;;1.65;;
47365;SDS011;33105;47.964;7.982;2022-08-05T00:19:35;2.78;;;1.50;;
47365;SDS011;33105;47.964;7.982;2022-08-05T00:22:36;3.40;;;1.60;;
47365;SDS011;33105;47.964;7.982;2022-08-05T00:25:37;1.75;;;1.60;;
47365;SDS011;33105;47.964;7.982;2022-08-05T00:28:39;3.25;;;1.63;;
47365;SDS011;33105;47.964;7.982;2022-08-05T00:31:40;1.98;;;1.40;;
47365;SDS011;33105;47.964;7.982;2022-08-05T00:34:42;4.22;;;1.70;;
47365;SDS011;33105;47.964;7.982;2022-08-05T00:37:45;1.75;;;1.58;;
47365;SDS011;33105;47.964;7.982;2022-08-05T00:40:47;3.03;;;1.58;;
47365;SDS011;33105;47.964;7.982;2022-08-05T00:43:49;1.80;;;1.58;;
47365;SDS011;33105;47.964;7.982;2022-08-05T00:46:50;2.15;;;1.55;;
47365;SDS011;33105;47.964;7.982;2022-08-05T00:49:52;4.57;;;1.60;;
47365;SDS011;33105;47.964;7.982;2022-08-05T00:53:02;1.73;;;1.45;;
47365;SDS011;33105;47.964;7.982;2022-08-05T00:56:03;2.78;;;1.60;;
47365;SDS011;33105;47.964;7.982;2022-08-05T00:59:05;2.67;;;1.80;;
47365;SDS011;33105;47.964;7.982;2022-08-05T01:02:07;1.60;;;1.50;;
47365;SDS011;33105;47.964;7.982;2022-08-05T01:05:08;3.17;;;1.50;;
47365;SDS011;33105;47.964;7.982;2022-08-05T01:08:09;3.50;;;1.73;;
47365;SDS011;33105;47.964;7.982;2022-08-05T01:11:29;4.05;;;1.85;;
47365;SDS011;33105;47.964;7.982;2022-08-05T01:17:54;1.83;;;1.50;;
47365;SDS011;33105;47.964;7.982;2022-08-05T01:27:45;2.03;;;1.60;;
47365;SDS011;33105;47.964;7.982;2022-08-05T01:31:00;6.15;;;1.58;;
47365;SDS011;33105;47.964;7.982;2022-08-05T01:34:09;2.03;;;1.52;;
47365;SDS011;33105;47.964;7.982;2022-08-05T01:40:43;4.18;;;1.80;;
47365;SDS011;33105;47.964;7.982;2022-08-05T01:43:47;2.55;;;1.83;;
47365;SDS011;33105;47.964;7.982;2022-08-05T01:46:50;4.35;;;1.90;;
47365;SDS011;33105;47.964;7.982;2022-08-05T01:49:53;2.65;;;1.60;;
47365;SDS011;33105;47.964;7.982;2022-08-05T01:52:58;3.25;;;1.67;;
47365;SDS011;33105;47.964;7.982;2022-08-05T01:56:02;2.15;;;1.70;;
47365;SDS011;33105;47.964;7.982;2022-08-05T01:59:07;1.95;;;1.85;;
47365;SDS011;33105;47.964;7.982;2022-08-05T02:02:10;5.32;;;1.77;;
47365;SDS011;33105;47.964;7.982;2022-08-05T02:05:13;2.20;;;1.60;;
47365;SDS011;33105;47.964;7.982;2022-08-05T02:08:15;3.78;;;1.85;;
47365;SDS011;33105;47.964;7.982;2022-08-05T02:11:16;2.45;;;1.63;;
47365;SDS011;33105;47.964;7.982;2022-08-05T02:14:32;4.78;;;1.77;;
47365;SDS011;33105;47.964;7.982;2022-08-05T02:17:44;1.83;;;1.73;;
47365;SDS011;33105;47.964;7.982;2022-08-05T02:20:55;5.45;;;2.00;;
47365;SDS011;33105;47.964;7.982;2022-08-05T02:24:02;2.63;;;1.77;;
47365;SDS011;33105;47.964;7.982;2022-08-05T02:27:07;3.35;;;1.73;;
47365;SDS011;33105;47.964;7.982;2022-08-05T02:30:11;3.35;;;1.80;;
47365;SDS011;33105;47.964;7.982;2022-08-05T02:33:14;4.53;;;1.73;;
47365;SDS011;33105;47.964;7.982;2022-08-05T02:36:19;2.58;;;1.55;;
47365;SDS011;33105;47.964;7.982;2022-08-05T02:39:23;2.63;;;1.85;;
47365;SDS011;33105;47.964;7.982;2022-08-05T02:42:27;2.25;;;1.52;;
47365;SDS011;33105;47.964;7.982;2022-08-05T02:45:29;2.70;;;1.45;;
47365;SDS011;33105;47.964;7.982;2022-08-05T02:48:33;2.22;;;1.52;;
47365;SDS011;33105;47.964;7.982;2022-08-05T02:51:36;4.60;;;1.60;;
47365;SDS011;33105;47.964;7.982;2022-08-05T02:54:38;4.10;;;1.65;;
47365;SDS011;33105;47.964;7.982;2022-08-05T02:57:42;4.05;;;1.90;;
47365;SDS011;33105;47.964;7.982;2022-08-05T03:00:45;1.70;;;1.55;;
47365;SDS011;33105;47.964;7.982;2022-08-05T03:03:48;4.38;;;2.00;;
47365;SDS011;33105;47.964;7.982;2022-08-05T03:06:52;3.58;;;1.77;;
47365;SDS011;33105;47.964;7.982;2022-08-05T03:09:54;5.32;;;1.85;;
47365;SDS011;33105;47.964;7.982;2022-08-05T03:12:57;3.78;;;2.00;;
47365;SDS011;33105;47.964;7.982;2022-08-05T03:15:58;4.13;;;1.90;;
47365;SDS011;33105;47.964;7.982;2022-08-05T03:18:59;2.55;;;1.65;;
47365;SDS011;33105;47.964;7.982;2022-08-05T03:22:01;4.00;;;1.60;;
47365;SDS011;33105;47.964;7.982;2022-08-05T03:25:02;1.98;;;1.60;;
47365;SDS011;33105;47.964;7.982;2022-08-05T03:28:05;4.32;;;2.10;;
47365;SDS011;33105;47.964;7.982;2022-08-05T03:31:08;3.50;;;1.70;;
47365;SDS011;33105;47.964;7.982;2022-08-05T03:34:10;2.85;;;1.63;;
47365;SDS011;33105;47.964;7.982;2022-08-05T03:37:11;5.68;;;1.77;;
47365;SDS011;33105;47.964;7.982;2022-08-05T03:40:13;4.50;;;1.90;;
47365;SDS011;33105;47.964;7.982;2022-08-05T03:43:15;3.60;;;2.00;;
47365;SDS011;33105;47.964;7.982;2022-08-05T03:46:16;3.50;;;1.50;;
47365;SDS011;33105;47.964;7.982;2022-08-05T03:49:18;2.83;;;1.70;;
47365;SDS011;33105;47.964;7.982;2022-08-05T03:52:23;1.90;;;1.60;;
47365;SDS011;33105;47.964;7.982;2022-08-05T03:55:32;1.85;;;1.65;;
47365;SDS011;33105;47.964;7.982;2022-08-05T03:58:39;7.10;;;2.28;;
47365;SDS011;33105;47.964;7.982;2022-08-05T04:01:45;5.53;;;2.13;;
47365;SDS011;33105;47.964;7.982;2022-08-05T04:04:49;4.80;;;1.70;;
47365;SDS011;33105;47.964;7.982;2022-08-05T04:07:52;2.78;;;1.85;;
47365;SDS011;33105;47.964;7.982;2022-08-05T04:10:53;7.90;;;1.85;;
47365;SDS011;33105;47.964;7.982;2022-08-05T04:13:58;3.22;;;1.77;;
47365;SDS011;33105;47.964;7.982;2022-08-05T04:17:00;2.72;;;1.80;;
47365;SDS011;33105;47.964;7.982;2022-08-05T04:20:02;4.20;;;1.90;;
47365;SDS011;33105;47.964;7.982;2022-08-05T04:23:04;2.38;;;1.50;;
47365;SDS011;33105;47.964;7.982;2022-08-05T04:26:10;3.15;;;1.80;;
47365;SDS011;33105;47.964;7.982;2022-08-05T04:29:13;2.85;;;2.00;;
47365;SDS011;33105;47.964;7.982;2022-08-05T04:32:14;3.13;;;1.75;;
47365;SDS011;33105;47.964;7.982;2022-08-05T04:35:15;2.85;;;1.70;;
47365;SDS011;33105;47.964;7.982;2022-08-05T04:38:16;5.63;;;2.03;;
47365;SDS011;33105;47.964;7.982;2022-08-05T04:41:18;3.17;;;2.00;;
47365;SDS011;33105;47.964;7.982;2022-08-05T04:44:19;4.20;;;2.40;;
47365;SDS011;33105;47.964;7.982;2022-08-05T04:47:20;4.00;;;1.98;;
47365;SDS011;33105;47.964;7.982;2022-08-05T04:50:22;5.72;;;2.05;;
47365;SDS011;33105;47.964;7.982;2022-08-05T04:53:24;7.93;;;2.00;;
47365;SDS011;33105;47.964;7.982;2022-08-05T04:56:25;2.67;;;1.77;;
47365;SDS011;33105;47.964;7.982;2022-08-05T04:59:27;5.35;;;2.40;;
47365;SDS011;33105;47.964;7.982;2022-08-05T05:02:28;2.72;;;1.98;;
47365;SDS011;33105;47.964;7.982;2022-08-05T05:05:30;2.42;;;1.83;;
47365;SDS011;33105;47.964;7.982;2022-08-05T05:08:32;2.47;;;1.88;;
47365;SDS011;33105;47.964;7.982;2022-08-05T05:11:33;3.88;;;1.90;;
47365;SDS011;33105;47.964;7.982;2022-08-05T05:14:34;3.10;;;1.80;;
47365;SDS011;33105;47.964;7.982;2022-08-05T05:17:36;3.00;;;1.50;;
47365;SDS011;33105;47.964;7.982;2022-08-05T05:20:42;2.38;;;1.90;;
47365;SDS011;33105;47.964;7.982;2022-08-05T05:23:44;4.63;;;1.90;;
47365;SDS011;33105;47.964;7.982;2022-08-05T05:26:45;3.45;;;1.75;;
47365;SDS011;33105;47.964;7.982;2022-08-05T05:29:46;4.18;;;1.80;;
47365;SDS011;33105;47.964;7.982;2022-08-05T05:32:47;4.97;;;1.77;;
47365;SDS011;33105;47.964;7.982;2022-08-05T05:35:48;3.22;;;2.13;;
47365;SDS011;33105;47.964;7.982;2022-08-05T05:38:49;2.65;;;2.00;;
47365;SDS011;33105;47.964;7.982;2022-08-05T05:41:51;3.33;;;2.30;;
47365;SDS011;33105;47.964;7.982;2022-08-05T05:44:52;2.15;;;1.80;;
47365;SDS011;33105;47.964;7.982;2022-08-05T05:47:53;4.10;;;2.13;;
47365;SDS011;33105;47.964;7.982;2022-08-05T05:50:54;6.97;;;2.17;;
47365;SDS011;33105;47.964;7.982;2022-08-05T05:53:55;6.32;;;2.25;;
47365;SDS011;33105;47.964;7.982;2022-08-05T05:56:57;6.60;;;2.10;;
47365;SDS011;33105;47.964;7.982;2022-08-05T05:59:58;3.75;;;2.10;;
47365;SDS011;33105;47.964;7.982;2022-08-05T06:03:00;5.85;;;2.00;;
47365;SDS011;33105;47.964;7.982;2022-08-05T06:06:03;3.03;;;1.90;;
47365;SDS011;33105;47.964;7.982;2022-08-05T06:09:06;6.32;;;1.90;;
47365;SDS011;33105;47.964;7.982;2022-08-05T06:12:07;5.93;;;2.30;;
47365;SDS011;33105;47.964;7.982;2022-08-05T06:15:09;6.03;;;2.00;;
47365;SDS011;33105;47.964;7.982;2022-08-05T06:18:11;7.05;;;2.10;;
47365;SDS011;33105;47.964;7.982;2022-08-05T06:21:12;5.47;;;1.63;;
47365;SDS011;33105;47.964;7.982;2022-08-05T06:24:14;6.05;;;2.10;;
47365;SDS011;33105;47.964;7.982;2022-08-05T06:27:16;6.10;;;2.03;;
47365;SDS011;33105;47.964;7.982;2022-08-05T06:30:17;6.25;;;2.20;;
47365;SDS011;33105;47.964;7.982;2022-08-05T06:33:20;7.75;;;1.70;;
47365;SDS011;33105;47.964;7.982;2022-08-05T06:36:21;3.58;;;1.73;;
47365;SDS011;33105;47.964;7.982;2022-08-05T06:39:24;6.18;;;2.15;;
47365;SDS011;33105;47.964;7.982;2022-08-05T06:42:26;3.05;;;1.60;;
47365;SDS011;33105;47.964;7.982;2022-08-05T06:45:28;7.40;;;2.00;;
47365;SDS011;33105;47.964;7.982;2022-08-05T06:48:30;5.40;;;2.20;;
47365;SDS011;33105;47.964;7.982;2022-08-05T06:51:35;5.45;;;1.88;;
47365;SDS011;33105;47.964;7.982;2022-08-05T06:54:36;5.63;;;2.00;;
47365;SDS011;33105;47.964;7.982;2022-08-05T06:57:38;4.43;;;1.95;;
47365;SDS011;33105;47.964;7.982;2022-08-05T07:00:40;7.10;;;1.85;;
47365;SDS011;33105;47.964;7.982;2022-08-05T07:03:41;3.05;;;1.60;;
47365;SDS011;33105;47.964;7.982;2022-08-05T07:06:42;4.72;;;2.13;;
47365;SDS011;33105;47.964;7.982;2022-08-05T07:09:44;4.30;;;1.88;;
47365;SDS011;33105;47.964;7.982;2022-08-05T07:12:45;5.93;;;2.35;;
47365;SDS011;33105;47.964;7.982;2022-08-05T07:16:05;7.25;;;2.15;;
47365;SDS011;33105;47.964;7.982;2022-08-05T07:19:24;1.67;;;1.55;;
47365;SDS011;33105;47.964;7.982;2022-08-05T07:22:27;3.38;;;1.65;;
47365;SDS011;33105;47.964;7.982;2022-08-05T07:25:28;8.65;;;1.75;;
47365;SDS011;33105;47.964;7.982;2022-08-05T07:28:30;2.13;;;1.52;;
47365;SDS011;33105;47.964;7.982;2022-08-05T07:31:31;3.58;;;1.58;;
47365;SDS011;33105;47.964;7.982;2022-08-05T07:34:33;2.63;;;1.58;;
47365;SDS011;33105;47.964;7.982;2022-08-05T07:37:34;7.35;;;1.88;;
47365;SDS011;33105;47.964;7.982;2022-08-05T07:40:35;5.55;;;1.67;;
47365;SDS011;33105;47.964;7.982;2022-08-05T07:43:37;2.95;;;1.60;;
47365;SDS011;33105;47.964;7.982;2022-08-05T07:46:38;2.40;;;1.70;;
47365;SDS011;33105;47.964;7.982;2022-08-05T07:49:39;5.93;;;1.88;;
47365;SDS011;33105;47.964;7.982;2022-08-05T07:52:41;5.40;;;2.00;;
47365;SDS011;33105;47.964;7.982;2022-08-05T07:55:43;4.15;;;1.65;;
47365;SDS011;33105;47.964;7.982;2022-08-05T07:58:44;2.63;;;1.52;;
47365;SDS011;33105;47.964;7.982;2022-08-05T08:01:46;6.72;;;1.40;;
47365;SDS011;33105;47.964;7.982;2022-08-05T08:04:47;13.13;;;1.52;;
47365;SDS011;33105;47.964;7.982;2022-08-05T08:07:48;5.28;;;1.48;;
47365;SDS011;33105;47.964;7.982;2022-08-05T08:10:50;3.58;;;1.60;;
47365;SDS011;33105;47.964;7.982;2022-08-05T08:13:51;2.13;;;1.30;;
47365;SDS011;33105;47.964;7.982;2022-08-05T08:16:54;4.47;;;1.50;;
47365;SDS011;33105;47.964;7.982;2022-08-05T08:19:55;8.23;;;1.67;;
47365;SDS011;33105;47.964;7.982;2022-08-05T08:22:57;11.68;;;1.70;;
47365;SDS011;33105;47.964;7.982;2022-08-05T08:25:59;3.60;;;1.30;;
47365;SDS011;33105;47.964;7.982;2022-08-05T08:29:00;2.53;;;1.50;;
47365;SDS011;33105;47.964;7.982;2022-08-05T08:32:02;11.60;;;1.95;;
47365;SDS011;33105;47.964;7.982;2022-08-05T08:35:04;8.95;;;1.63;;
47365;SDS011;33105;47.964;7.982;2022-08-05T08:38:05;11.90;;;1.80;;
47365;SDS011;33105;47.964;7.982;2022-08-05T08:41:09;5.07;;;1.75;;
47365;SDS011;33105;47.964;7.982;2022-08-05T08:44:13;4.78;;;1.17;;
47365;SDS011;33105;47.964;7.982;2022-08-05T08:47:17;10.98;;;1.45;;
47365;SDS011;33105;47.964;7.982;2022-08-05T08:50:21;2.67;;;1.20;;
47365;SDS011;33105;47.964;7.982;2022-08-05T08:53:24;2.08;;;1.10;;
47365;SDS011;33105;47.964;7.982;2022-08-05T08:56:28;4.72;;;1.40;;
47365;SDS011;33105;47.964;7.982;2022-08-05T08:59:29;2.83;;;1.25;;
47365;SDS011;33105;47.964;7.982;2022-08-05T09:02:31;2.00;;;0.88;;
47365;SDS011;33105;47.964;7.982;2022-08-05T09:05:33;2.75;;;0.93;;
47365;SDS011;33105;47.964;7.982;2022-08-05T09:08:34;1.33;;;1.02;;
47365;SDS011;33105;47.964;7.982;2022-08-05T09:11:35;0.88;;;0.88;;
47365;SDS011;33105;47.964;7.982;2022-08-05T09:14:37;2.65;;;1.17;;
47365;SDS011;33105;47.964;7.982;2022-08-05T09:17:39;2.22;;;1.00;;
47365;SDS011;33105;47.964;7.982;2022-08-05T09:20:41;2.38;;;1.30;;
47365;SDS011;33105;47.964;7.982;2022-08-05T09:23:44;3.70;;;1.05;;
47365;SDS011;33105;47.964;7.982;2022-08-05T09:26:49;1.60;;;0.90;;
47365;SDS011;33105;47.964;7.982;2022-08-05T09:29:51;3.15;;;1.13;;
47365;SDS011;33105;47.964;7.982;2022-08-05T09:32:52;2.00;;;1.17;;
47365;SDS011;33105;47.964;7.982;2022-08-05T09:36:02;3.10;;;1.15;;
47365;SDS011;33105;47.964;7.982;2022-08-05T09:39:06;2.63;;;1.40;;
47365;SDS011;33105;47.964;7.982;2022-08-05T09:42:09;1.95;;;1.33;;
47365;SDS011;33105;47.964;7.982;2022-08-05T09:45:11;3.15;;;1.50;;
47365;SDS011;33105;47.964;7.982;2022-08-05T09:48:19;3.63;;;1.60;;
47365;SDS011;33105;47.964;7.982;2022-08-05T09:51:32;2.60;;;1.63;;
47365;SDS011;33105;47.964;7.982;2022-08-05T09:54:34;9.82;;;1.75;;
47365;SDS011;33105;47.964;7.982;2022-08-05T09:57:40;5.95;;;1.50;;
47365;SDS011;33105;47.964;7.982;2022-08-05T10:00:58;5.97;;;1.70;;
47365;SDS011;33105;47.964;7.982;2022-08-05T10:04:06;2.88;;;1.25;;
47365;SDS011;33105;47.964;7.982;2022-08-05T10:07:10;5.40;;;1.80;;
47365;SDS011;33105;47.964;7.982;2022-08-05T10:10:12;6.07;;;1.50;;
47365;SDS011;33105;47.964;7.982;2022-08-05T10:13:33;3.20;;;1.60;;
47365;SDS011;33105;47.964;7.982;2022-08-05T10:16:36;5.88;;;1.50;;
47365;SDS011;33105;47.964;7.982;2022-08-05T10:19:37;4.18;;;1.40;;
47365;SDS011;33105;47.964;7.982;2022-08-05T10:22:38;4.63;;;1.50;;
47365;SDS011;33105;47.964;7.982;2022-08-05T10:25:41;4.95;;;1.45;;
47365;SDS011;33105;47.964;7.982;2022-08-05T10:28:43;12.00;;;1.90;;
47365;SDS011;33105;47.964;7.982;2022-08-05T10:31:45;4.55;;;1.92;;
47365;SDS011;33105;47.964;7.982;2022-08-05T10:34:47;15.57;;;1.90;;
47365;SDS011;33105;47.964;7.982;2022-08-05T10:37:49;4.00;;;1.77;;
47365;SDS011;33105;47.964;7.982;2022-08-05T10:40:55;4.18;;;1.90;;
47365;SDS011;33105;47.964;7.982;2022-08-05T10:44:11;3.70;;;1.33;;
47365;SDS011;33105;47.964;7.982;2022-08-05T10:47:15;6.90;;;1.88;;
47365;SDS011;33105;47.964;7.982;2022-08-05T10:50:17;2.72;;;1.70;;
47365;SDS011;33105;47.964;7.982;2022-08-05T10:56:44;3.55;;;1.70;;
47365;SDS011;33105;47.964;7.982;2022-08-05T10:59:46;3.15;;;1.50;;
47365;SDS011;33105;47.964;7.982;2022-08-05T11:06:10;3.30;;;1.42;;
47365;SDS011;33105;47.964;7.982;2022-08-05T11:09:16;5.32;;;1.63;;
47365;SDS011;33105;47.964;7.982;2022-08-05T11:15:28;2.20;;;1.63;;
47365;SDS011;33105;47.964;7.982;2022-08-05T11:18:34;2.92;;;1.42;;
47365;SDS011;33105;47.964;7.982;2022-08-05T11:21:35;4.88;;;1.58;;
47365;SDS011;33105;47.964;7.982;2022-08-05T11:24:42;1.73;;;1.10;;
47365;SDS011;33105;47.964;7.982;2022-08-05T11:27:47;4.63;;;1.20;;
47365;SDS011;33105;47.964;7.982;2022-08-05T11:34:06;3.88;;;1.40;;
47365;SDS011;33105;47.964;7.982;2022-08-05T11:37:08;3.20;;;1.52;;
47365;SDS011;33105;47.964;7.982;2022-08-05T11:40:09;2.47;;;1.27;;
47365;SDS011;33105;47.964;7.982;2022-08-05T11:43:19;6.65;;;1.30;;
47365;SDS011;33105;47.964;7.982;2022-08-05T11:49:43;1.45;;;1.30;;
47365;SDS011;33105;47.964;7.982;2022-08-05T11:52:45;2.97;;;1.30;;
47365;SDS011;33105;47.964;7.982;2022-08-05T11:55:55;2.88;;;1.20;;
47365;SDS011;33105;47.964;7.982;2022-08-05T11:58:58;2.33;;;1.27;;
47365;SDS011;33105;47.964;7.982;2022-08-05T12:02:01;4.65;;;1.25;;
47365;SDS011;33105;47.964;7.982;2022-08-05T12:05:08;1.30;;;1.13;;
47365;SDS011;33105;47.964;7.982;2022-08-05T12:08:09;2.67;;;1.40;;
47365;SDS011;33105;47.964;7.982;2022-08-05T12:14:22;3.00;;;1.38;;
47365;SDS011;33105;47.964;7.982;2022-08-05T12:17:25;3.85;;;1.38;;
47365;SDS011;33105;47.964;7.982;2022-08-05T12:20:30;5.15;;;1.50;;
47365;SDS011;33105;47.964;7.982;2022-08-05T12:23:35;2.50;;;1.30;;
47365;SDS011;33105;47.964;7.982;2022-08-05T12:26:37;4.57;;;1.30;;
47365;SDS011;33105;47.964;7.982;2022-08-05T12:30:06;3.85;;;1.30;;
47365;SDS011;33105;47.964;7.982;2022-08-05T12:33:10;5.03;;;1.40;;
47365;SDS011;33105;47.964;7.982;2022-08-05T12:36:13;2.30;;;1.17;;
47365;SDS011;33105;47.964;7.982;2022-08-05T12:39:15;2.58;;;1.35;;
47365;SDS011;33105;47.964;7.982;2022-08-05T12:42:18;2.45;;;1.23;;
47365;SDS011;33105;47.964;7.982;2022-08-05T12:45:21;5.63;;;1.50;;
47365;SDS011;33105;47.964;7.982;2022-08-05T12:48:22;4.70;;;1.40;;
47365;SDS011;33105;47.964;7.982;2022-08-05T12:51:25;4.95;;;1.33;;
47365;SDS011;33105;47.964;7.982;2022-08-05T12:54:28;2.40;;;1.30;;
47365;SDS011;33105;47.964;7.982;2022-08-05T12:57:36;4.78;;;1.20;;
47365;SDS011;33105;47.964;7.982;2022-08-05T13:00:42;3.53;;;1.30;;
47365;SDS011;33105;47.964;7.982;2022-08-05T13:03:45;3.20;;;1.42;;
47365;SDS011;33105;47.964;7.982;2022-08-05T13:06:48;3.83;;;1.50;;
47365;SDS011;33105;47.964;7.982;2022-08-05T13:09:50;4.97;;;1.67;;
47365;SDS011;33105;47.964;7.982;2022-08-05T13:12:56;1.73;;;1.20;;
47365;SDS011;33105;47.964;7.982;2022-08-05T13:15:58;2.40;;;1.40;;
47365;SDS011;33105;47.964;7.982;2022-08-05T13:19:01;3.35;;;1.40;;
47365;SDS011;33105;47.964;7.982;2022-08-05T13:22:03;4.40;;;1.35;;
47365;SDS011;33105;47.964;7.982;2022-08-05T13:25:05;4.57;;;1.40;;
47365;SDS011;33105;47.964;7.982;2022-08-05T13:28:09;2.67;;;1.60;;
47365;SDS011;33105;47.964;7.982;2022-08-05T13:31:12;2.60;;;1.35;;
47365;SDS011;33105;47.964;7.982;2022-08-05T13:34:14;4.82;;;1.20;;
47365;SDS011;33105;47.964;7.982;2022-08-05T13:37:17;3.72;;;1.50;;
47365;SDS011;33105;47.964;7.982;2022-08-05T13:40:19;1.90;;;1.00;;
47365;SDS011;33105;47.964;7.982;2022-08-05T13:43:20;3.88;;;1.52;;
47365;SDS011;33105;47.964;7.982;2022-08-05T13:46:22;3.75;;;1.40;;
47365;SDS011;33105;47.964;7.982;2022-08-05T13:49:26;2.47;;;1.10;;
47365;SDS011;33105;47.964;7.982;2022-08-05T13:52:28;3.03;;;1.40;;
47365;SDS011;33105;47.964;7.982;2022-08-05T13:55:30;3.45;;;1.50;;
47365;SDS011;33105;47.964;7.982;2022-08-05T13:58:31;1.45;;;1.30;;
47365;SDS011;33105;47.964;7.982;2022-08-05T14:01:33;2.88;;;1.40;;
47365;SDS011;33105;47.964;7.982;2022-08-05T14:04:37;3.97;;;1.50;;
47365;SDS011;33105;47.964;7.982;2022-08-05T14:07:59;2.22;;;1.52;;
47365;SDS011;33105;47.964;7.982;2022-08-05T14:11:00;3.15;;;1.42;;
47365;SDS011;33105;47.964;7.982;2022-08-05T14:14:02;3.92;;;1.73;;
47365;SDS011;33105;47.964;7.982;2022-08-05T14:17:03;4.25;;;1.50;;
47365;SDS011;33105;47.964;7.982;2022-08-05T14:20:06;3.33;;;1.90;;
47365;SDS011;33105;47.964;7.982;2022-08-05T14:23:08;4.80;;;1.58;;
47365;SDS011;33105;47.964;7.982;2022-08-05T14:26:10;4.38;;;1.60;;
47365;SDS011;33105;47.964;7.982;2022-08-05T14:29:11;5.15;;;1.73;;
47365;SDS011;33105;47.964;7.982;2022-08-05T14:32:14;5.40;;;1.52;;
47365;SDS011;33105;47.964;7.982;2022-08-05T14:35:17;2.92;;;1.33;;
47365;SDS011;33105;47.964;7.982;2022-08-05T14:38:19;3.10;;;1.33;;
47365;SDS011;33105;47.964;7.982;2022-08-05T14:41:21;5.55;;;1.40;;
47365;SDS011;33105;47.964;7.982;2022-08-05T14:44:24;3.20;;;1.40;;
47365;SDS011;33105;47.964;7.982;2022-08-05T14:47:25;4.78;;;1.60;;
47365;SDS011;33105;47.964;7.982;2022-08-05T14:50:28;3.00;;;1.52;;
47365;SDS011;33105;47.964;7.982;2022-08-05T14:53:29;11.38;;;1.70;;
47365;SDS011;33105;47.964;7.982;2022-08-05T14:56:30;3.67;;;1.60;;
47365;SDS011;33105;47.964;7.982;2022-08-05T14:59:32;4.60;;;1.40;;
47365;SDS011;33105;47.964;7.982;2022-08-05T15:02:34;4.47;;;1.77;;
47365;SDS011;33105;47.964;7.982;2022-08-05T15:05:36;4.85;;;1.58;;
47365;SDS011;33105;47.964;7.982;2022-08-05T15:08:38;2.13;;;1.70;;
47365;SDS011;33105;47.964;7.982;2022-08-05T15:11:39;2.30;;;1.40;;
47365;SDS011;33105;47.964;7.982;2022-08-05T15:14:40;2.15;;;1.48;;
47365;SDS011;33105;47.964;7.982;2022-08-05T15:17:44;2.58;;;1.65;;
47365;SDS011;33105;47.964;7.982;2022-08-05T15:20:48;6.55;;;1.80;;
47365;SDS011;33105;47.964;7.982;2022-08-05T15:23:50;2.33;;;1.52;;
47365;SDS011;33105;47.964;7.982;2022-08-05T15:26:54;8.85;;;1.88;;
47365;SDS011;33105;47.964;7.982;2022-08-05T15:29:55;4.10;;;1.70;;
47365;SDS011;33105;47.964;7.982;2022-08-05T15:32:57;6.63;;;1.70;;
47365;SDS011;33105;47.964;7.982;2022-08-05T15:35:59;3.78;;;1.70;;
47365;SDS011;33105;47.964;7.982;2022-08-05T15:39:01;2.80;;;1.67;;
47365;SDS011;33105;47.964;7.982;2022-08-05T15:42:02;6.22;;;1.63;;
47365;SDS011;33105;47.964;7.982;2022-08-05T15:45:05;4.15;;;1.55;;
47365;SDS011;33105;47.964;7.982;2022-08-05T15:48:06;4.40;;;1.67;;
47365;SDS011;33105;47.964;7.982;2022-08-05T15:51:09;5.15;;;2.03;;
47365;SDS011;33105;47.964;7.982;2022-08-05T15:54:11;3.83;;;2.00;;
47365;SDS011;33105;47.964;7.982;2022-08-05T15:57:14;4.38;;;1.95;;
47365;SDS011;33105;47.964;7.982;2022-08-05T16:00:15;7.28;;;2.20;;
47365;SDS011;33105;47.964;7.982;2022-08-05T16:03:18;7.90;;;2.03;;
47365;SDS011;33105;47.964;7.982;2022-08-05T16:06:20;7.18;;;1.75;;
47365;SDS011;33105;47.964;7.982;2022-08-05T16:09:23;3.58;;;1.95;;
47365;SDS011;33105;47.964;7.982;2022-08-05T16:12:25;7.75;;;2.33;;
47365;SDS011;33105;47.964;7.982;2022-08-05T16:15:26;5.68;;;2.17;;
47365;SDS011;33105;47.964;7.982;2022-08-05T16:18:29;4.85;;;2.15;;
47365;SDS011;33105;47.964;7.982;2022-08-05T16:21:33;3.30;;;1.88;;
47365;SDS011;33105;47.964;7.982;2022-08-05T16:24:36;5.63;;;2.20;;
47365;SDS011;33105;47.964;7.982;2022-08-05T16:27:38;2.10;;;1.90;;
47365;SDS011;33105;47.964;7.982;2022-08-05T16:30:40;7.75;;;2.35;;
47365;SDS011;33105;47.964;7.982;2022-08-05T16:33:41;4.85;;;2.38;;
47365;SDS011;33105;47.964;7.982;2022-08-05T16:36:43;3.25;;;2.10;;
47365;SDS011;33105;47.964;7.982;2022-08-05T16:39:45;3.95;;;2.08;;
47365;SDS011;33105;47.964;7.982;2022-08-05T16:42:47;4.10;;;2.00;;
47365;SDS011;33105;47.964;7.982;2022-08-05T16:45:50;6.00;;;2.47;;
47365;SDS011;33105;47.964;7.982;2022-08-05T16:48:52;2.83;;;2.00;;
47365;SDS011;33105;47.964;7.982;2022-08-05T16:51:54;9.85;;;2.38;;
47365;SDS011;33105;47.964;7.982;2022-08-05T16:54:56;4.40;;;2.05;;
47365;SDS011;33105;47.964;7.982;2022-08-05T16:57:57;5.40;;;2.80;;
47365;SDS011;33105;47.964;7.982;2022-08-05T17:00:59;2.63;;;2.33;;
47365;SDS011;33105;47.964;7.982;2022-08-05T17:04:01;2.85;;;2.50;;
47365;SDS011;33105;47.964;7.982;2022-08-05T17:07:06;6.47;;;2.22;;
47365;SDS011;33105;47.964;7.982;2022-08-05T17:10:08;4.30;;;2.05;;
47365;SDS011;33105;47.964;7.982;2022-08-05T17:13:09;4.03;;;2.33;;
47365;SDS011;33105;47.964;7.982;2022-08-05T17:16:11;6.18;;;3.03;;
47365;SDS011;33105;47.964;7.982;2022-08-05T17:19:15;3.22;;;2.15;;
47365;SDS011;33105;47.964;7.982;2022-08-05T17:22:17;8.18;;;2.00;;
47365;SDS011;33105;47.964;7.982;2022-08-05T17:25:19;5.38;;;2.40;;
47365;SDS011;33105;47.964;7.982;2022-08-05T17:28:24;4.80;;;2.03;;
47365;SDS011;33105;47.964;7.982;2022-08-05T17:31:27;5.63;;;1.75;;
47365;SDS011;33105;47.964;7.982;2022-08-05T17:34:29;3.72;;;2.10;;
47365;SDS011;33105;47.964;7.982;2022-08-05T17:37:30;4.75;;;1.92;;
47365;SDS011;33105;47.964;7.982;2022-08-05T17:40:33;3.40;;;2.35;;
47365;SDS011;33105;47.964;7.982;2022-08-05T17:43:36;7.05;;;2.20;;
47365;SDS011;33105;47.964;7.982;2022-08-05T17:46:38;3.78;;;1.98;;
47365;SDS011;33105;47.964;7.982;2022-08-05T17:49:39;6.22;;;2.17;;
47365;SDS011;33105;47.964;7.982;2022-08-05T17:52:41;4.38;;;1.90;;
47365;SDS011;33105;47.964;7.982;2022-08-05T17:55:43;2.80;;;1.90;;
47365;SDS011;33105;47.964;7.982;2022-08-05T17:58:45;2.40;;;2.05;;
47365;SDS011;33105;47.964;7.982;2022-08-05T18:01:47;2.83;;;2.05;;
47365;SDS011;33105;47.964;7.982;2022-08-05T18:04:49;6.07;;;2.30;;
47365;SDS011;33105;47.964;7.982;2022-08-05T18:07:51;4.63;;;2.33;;
47365;SDS011;33105;47.964;7.982;2022-08-05T18:10:53;4.38;;;2.00;;
47365;SDS011;33105;47.964;7.982;2022-08-05T18:13:59;2.85;;;1.98;;
47365;SDS011;33105;47.964;7.982;2022-08-05T18:17:01;3.03;;;1.90;;
47365;SDS011;33105;47.964;7.982;2022-08-05T18:20:06;2.40;;;1.60;;
47365;SDS011;33105;47.964;7.982;2022-08-05T18:23:07;4.07;;;1.90;;
47365;SDS011;33105;47.964;7.982;2022-08-05T18:26:10;2.72;;;2.05;;
47365;SDS011;33105;47.964;7.982;2022-08-05T18:29:12;3.70;;;2.03;;
47365;SDS011;33105;47.964;7.982;2022-08-05T18:32:15;2.55;;;1.63;;
47365;SDS011;33105;47.964;7.982;2022-08-05T18:35:17;2.15;;;1.73;;
47365;SDS011;33105;47.964;7.982;2022-08-05T18:38:18;1.48;;;1.38;;
47365;SDS011;33105;47.964;7.982;2022-08-05T18:41:21;2.83;;;1.92;;
47365;SDS011;33105;47.964;7.982;2022-08-05T18:44:23;3.22;;;1.85;;
47365;SDS011;33105;47.964;7.982;2022-08-05T18:47:26;5.75;;;2.20;;
47365;SDS011;33105;47.964;7.982;2022-08-05T18:50:28;3.38;;;1.85;;
47365;SDS011;33105;47.964;7.982;2022-08-05T18:53:48;2.28;;;1.70;;
47365;SDS011;33105;47.964;7.982;2022-08-05T18:56:51;4.32;;;1.67;;